Time;durP1;ratioP1;P1;durP2;ratioP2;P2;SDS_P1;SDS_P2;PMS_P1;PMS_P2;Temp;Humidity;BMP_temperature;BMP_pressure;BME280_temperature;BME280_humidity;BME280_pressure;Samples;Min_cycle;Max_cycle;Signal;HPM_P1;HPM_P2
2021/12/31 00:02:07;;;;;;;66.13;50.65;;;19.00;75.20;;;;;;4985845;27;91769;-72
2021/12/31 00:04:33;;;;;;;66.60;50.63;;;19.00;75.10;;;;;;5015598;27;90750;-72
2021/12/31 00:06:58;;;;;;;66.38;50.60;;;19.00;75.20;;;;;;5007261;27;91580;-72
2021/12/31 00:09:24;;;;;;;65.93;50.47;;;19.00;75.20;;;;;;5014157;27;91869;-73
2021/12/31 00:11:49;;;;;;;66.90;50.30;;;19.00;75.00;;;;;;5021368;27;90541;-72
2021/12/31 00:14:16;;;;;;;65.82;50.20;;;19.00;75.00;;;;;;5017163;27;90823;-72
2021/12/31 00:16:42;;;;;;;65.95;50.55;;;18.90;74.90;;;;;;5015420;27;89598;-72
2021/12/31 00:19:07;;;;;;;66.25;50.40;;;19.00;75.00;;;;;;5014638;27;91921;-72
2021/12/31 00:21:36;;;;;;;67.03;50.63;;;19.00;75.00;;;;;;5013549;27;90209;-72
2021/12/31 00:24:02;;;;;;;68.30;50.63;;;19.00;75.00;;;;;;5020494;27;89888;-72
2021/12/31 00:26:28;;;;;;;66.60;50.15;;;18.90;74.90;;;;;;4998700;27;91023;-72
2021/12/31 00:28:54;;;;;;;66.18;50.30;;;19.00;74.80;;;;;;5012666;27;90272;-72
2021/12/31 00:31:19;;;;;;;67.03;50.80;;;18.90;74.70;;;;;;5002934;27;91816;-72
2021/12/31 00:33:45;;;;;;;67.60;50.55;;;18.90;74.80;;;;;;5012659;27;91502;-72
2021/12/31 00:36:11;;;;;;;65.35;50.05;;;18.90;74.70;;;;;;5023121;27;89718;-72
2021/12/31 00:38:36;;;;;;;67.20;50.30;;;18.90;74.80;;;;;;5023671;27;91151;-72
2021/12/31 00:41:02;;;;;;;66.13;50.72;;;18.90;74.50;;;;;;5019048;27;90672;-72
2021/12/31 00:43:27;;;;;;;66.05;50.20;;;18.90;74.70;;;;;;5019394;27;90114;-72
2021/12/31 00:45:53;;;;;;;66.07;49.80;;;18.90;74.50;;;;;;5000831;27;89703;-72
2021/12/31 00:48:19;;;;;;;66.22;50.38;;;18.90;74.40;;;;;;5014642;27;91542;-72
2021/12/31 00:50:44;;;;;;;65.13;49.92;;;18.90;74.30;;;;;;5013637;27;92160;-73
2021/12/31 00:53:10;;;;;;;65.72;50.38;;;18.90;74.30;;;;;;5006782;27;91613;-72
2021/12/31 00:55:37;;;;;;;65.15;50.10;;;18.90;74.40;;;;;;5012099;27;89196;-72
2021/12/31 00:58:03;;;;;;;64.75;49.97;;;18.90;74.40;;;;;;5014943;27;90959;-72
2021/12/31 01:00:29;;;;;;;66.03;50.20;;;18.90;74.40;;;;;;5010933;27;89947;-72
2021/12/31 01:02:55;;;;;;;70.63;50.60;;;18.90;74.40;;;;;;5016133;27;91544;-72
2021/12/31 01:05:20;;;;;;;65.90;50.35;;;18.90;74.40;;;;;;5020675;27;89952;-72
2021/12/31 01:07:46;;;;;;;65.45;49.92;;;18.90;74.20;;;;;;5013541;27;89884;-72
2021/12/31 01:10:15;;;;;;;65.57;50.08;;;18.90;74.30;;;;;;5003489;27;90493;-72
2021/12/31 01:12:41;;;;;;;65.68;50.05;;;18.90;74.20;;;;;;5011511;27;89957;-72
2021/12/31 01:15:19;;;;;;;64.35;49.83;;;18.90;74.10;;;;;;5012061;27;89782;-72
2021/12/31 01:20:26;;;;;;;65.82;49.92;;;18.80;74.00;;;;;;5012874;27;91546;-72
2021/12/31 01:22:52;;;;;;;68.15;50.35;;;18.80;74.10;;;;;;5015615;27;89532;-72
2021/12/31 01:25:17;;;;;;;64.97;49.90;;;18.80;74.10;;;;;;5004351;27;91084;-72
2021/12/31 01:27:43;;;;;;;64.68;50.15;;;18.80;74.10;;;;;;5009309;27;90681;-72
2021/12/31 01:30:13;;;;;;;64.28;49.97;;;18.90;74.00;;;;;;5005059;27;90313;-72
2021/12/31 01:32:39;;;;;;;65.15;50.17;;;18.80;74.00;;;;;;5010823;27;90358;-72
2021/12/31 01:35:05;;;;;;;64.97;50.08;;;18.80;74.00;;;;;;5018987;27;96354;-72
2021/12/31 01:37:31;;;;;;;65.35;49.83;;;18.80;73.80;;;;;;5008745;27;90562;-72
2021/12/31 01:39:57;;;;;;;66.40;49.72;;;18.80;73.80;;;;;;5012038;27;89766;-72
2021/12/31 01:42:29;;;;;;;65.00;49.85;;;18.80;73.90;;;;;;5015591;27;89861;-72
2021/12/31 01:45:02;;;;;;;66.97;49.85;;;18.80;74.00;;;;;;4996429;27;89632;-72
2021/12/31 01:47:35;;;;;;;65.53;50.30;;;18.70;74.00;;;;;;5007600;27;92791;-72
2021/12/31 01:50:06;;;;;;;65.05;50.15;;;18.70;74.10;;;;;;5000041;27;90329;-72
2021/12/31 01:52:34;;;;;;;64.07;49.85;;;18.70;74.10;;;;;;5013389;27;90745;-72
2021/12/31 01:55:01;;;;;;;65.28;49.70;;;18.70;74.10;;;;;;5011267;27;89812;-72
2021/12/31 01:57:29;;;;;;;63.95;49.60;;;18.70;74.00;;;;;;5008592;27;90845;-72
2021/12/31 01:59:55;;;;;;;65.20;49.92;;;18.70;74.00;;;;;;5011540;27;90796;-72
2021/12/31 02:02:21;;;;;;;64.15;49.58;;;18.70;74.00;;;;;;5009453;27;90725;-72
2021/12/31 02:04:46;;;;;;;63.90;49.55;;;18.70;74.00;;;;;;5018770;27;90429;-72
2021/12/31 02:07:12;;;;;;;65.03;49.72;;;18.70;74.10;;;;;;5008967;27;93235;-72
2021/12/31 02:09:45;;;;;;;65.78;49.75;;;18.60;74.00;;;;;;5010274;27;95855;-72
2021/12/31 02:12:11;;;;;;;65.13;49.90;;;18.60;74.00;;;;;;5009454;27;96289;-72
2021/12/31 02:14:37;;;;;;;65.68;49.85;;;18.60;74.00;;;;;;4992195;27;90122;-72
2021/12/31 02:17:07;;;;;;;65.10;49.78;;;18.60;74.00;;;;;;5013982;27;91109;-72
2021/12/31 02:19:33;;;;;;;64.32;49.72;;;18.60;74.10;;;;;;5011819;27;90686;-72
2021/12/31 02:21:59;;;;;;;65.13;49.67;;;18.60;74.00;;;;;;5014350;27;94720;-72
2021/12/31 02:24:25;;;;;;;65.43;50.00;;;18.60;74.00;;;;;;5015470;27;89608;-72
2021/12/31 02:26:51;;;;;;;65.30;49.63;;;18.60;74.00;;;;;;4995519;27;90967;-72
2021/12/31 02:29:17;;;;;;;64.95;50.10;;;18.60;74.10;;;;;;5013343;27;90983;-72
2021/12/31 02:31:43;;;;;;;64.63;49.90;;;18.50;74.10;;;;;;5008833;27;95190;-72
2021/12/31 02:34:09;;;;;;;65.22;49.83;;;18.60;74.30;;;;;;5016097;27;88951;-72
2021/12/31 02:36:35;;;;;;;64.75;49.83;;;18.60;74.10;;;;;;5010706;27;90483;-72
2021/12/31 02:39:00;;;;;;;63.70;49.75;;;18.50;74.10;;;;;;5009348;27;90847;-72
2021/12/31 02:41:26;;;;;;;64.45;49.92;;;18.50;74.10;;;;;;5007039;27;92675;-72
2021/12/31 02:43:52;;;;;;;64.97;50.00;;;18.50;74.10;;;;;;5015288;27;90576;-72
2021/12/31 02:46:17;;;;;;;64.63;49.65;;;18.50;74.10;;;;;;5017156;27;89885;-72
2021/12/31 02:48:44;;;;;;;64.55;49.83;;;18.50;73.90;;;;;;5010512;27;89598;-72
2021/12/31 02:51:10;;;;;;;63.97;49.65;;;18.50;74.10;;;;;;5017954;27;90563;-72
2021/12/31 02:53:40;;;;;;;64.63;49.60;;;18.50;74.10;;;;;;5008798;27;90251;-72
2021/12/31 02:56:11;;;;;;;64.65;49.88;;;18.50;74.30;;;;;;5010634;27;90141;-72
2021/12/31 02:58:39;;;;;;;65.28;49.70;;;18.40;74.10;;;;;;5010990;27;89275;-72
2021/12/31 03:01:07;;;;;;;65.32;49.90;;;18.40;74.10;;;;;;5011839;27;89858;-72
2021/12/31 03:03:35;;;;;;;64.05;49.53;;;18.50;74.00;;;;;;5017091;27;90359;-72
2021/12/31 03:06:02;;;;;;;64.80;49.50;;;18.40;74.10;;;;;;5012694;27;91315;-72
2021/12/31 03:08:31;;;;;;;64.20;49.85;;;18.40;74.10;;;;;;5011982;27;91088;-72
2021/12/31 03:11:00;;;;;;;62.70;49.40;;;18.40;73.90;;;;;;5008558;27;90289;-72
2021/12/31 03:13:25;;;;;;;66.18;49.55;;;18.50;74.10;;;;;;5009672;27;89509;-72
2021/12/31 03:15:52;;;;;;;64.03;49.53;;;18.40;74.10;;;;;;5014726;27;90567;-72
2021/12/31 03:18:19;;;;;;;63.80;49.45;;;18.40;74.20;;;;;;5008732;27;89589;-72
2021/12/31 03:21:01;;;;;;;63.45;49.40;;;18.40;74.10;;;;;;5013924;27;92082;-72
2021/12/31 03:23:27;;;;;;;;;;;18.40;74.10;;;;;;5009034;27;88740;-72
2021/12/31 03:25:53;;;;;;;63.28;49.53;;;18.30;74.00;;;;;;5013740;27;90481;-72
2021/12/31 03:28:20;;;;;;;64.60;49.97;;;18.30;74.20;;;;;;4986602;28;92011;-72
2021/12/31 03:30:47;;;;;;;63.30;49.25;;;18.40;74.20;;;;;;4993122;27;91646;-72
2021/12/31 03:33:13;;;;;;;64.53;49.70;;;18.30;74.00;;;;;;5004003;27;90932;-72
2021/12/31 03:35:39;;;;;;;63.92;49.38;;;18.40;74.20;;;;;;5001487;27;90951;-72
2021/12/31 03:38:04;;;;;;;65.15;49.75;;;18.30;74.10;;;;;;5007550;27;91492;-72
2021/12/31 03:40:30;;;;;;;64.55;49.53;;;18.30;74.10;;;;;;5004881;27;90793;-72
2021/12/31 03:42:56;;;;;;;64.65;49.55;;;18.30;74.10;;;;;;5007470;27;89439;-72
2021/12/31 03:45:21;;;;;;;63.05;49.55;;;18.30;74.00;;;;;;4991490;27;92777;-72
2021/12/31 03:47:47;;;;;;;64.10;49.75;;;18.30;74.10;;;;;;5008431;27;89230;-72
2021/12/31 03:50:12;;;;;;;64.10;49.65;;;18.20;74.00;;;;;;4977013;28;90124;-72
2021/12/31 03:52:39;;;;;;;64.57;50.10;;;18.30;74.20;;;;;;5011811;27;89777;-72
2021/12/31 03:55:06;;;;;;;64.03;49.75;;;18.30;74.10;;;;;;5006995;27;91353;-72
2021/12/31 03:57:32;;;;;;;64.10;49.72;;;18.20;74.00;;;;;;5012025;27;89984;-72
2021/12/31 03:59:58;;;;;;;64.03;49.67;;;18.30;74.10;;;;;;5005725;27;91174;-72
2021/12/31 04:02:23;;;;;;;63.92;49.50;;;18.30;74.00;;;;;;5012957;27;90053;-72
2021/12/31 04:04:49;;;;;;;64.25;49.60;;;18.30;74.00;;;;;;5011813;27;90051;-72
2021/12/31 04:07:15;;;;;;;63.90;49.75;;;18.20;74.10;;;;;;5011359;27;91287;-72
2021/12/31 04:09:40;;;;;;;64.15;49.67;;;18.30;74.00;;;;;;5014334;27;89975;-72
2021/12/31 04:12:06;;;;;;;65.25;49.47;;;18.20;74.10;;;;;;5010893;27;88957;-73
2021/12/31 04:14:32;;;;;;;64.28;49.65;;;18.30;74.10;;;;;;4999618;27;96425;-72
2021/12/31 04:16:57;;;;;;;64.97;49.88;;;18.20;73.90;;;;;;5018266;27;90098;-72
2021/12/31 04:19:23;;;;;;;64.05;49.90;;;18.20;73.90;;;;;;4994804;27;93953;-72
2021/12/31 04:21:50;;;;;;;63.88;49.85;;;18.20;74.00;;;;;;5011404;27;90751;-72
2021/12/31 04:24:28;;;;;;;63.50;49.72;;;18.20;74.00;;;;;;5008610;27;91477;-72
2021/12/31 04:26:54;;;;;;;63.80;49.83;;;18.20;74.20;;;;;;5009086;27;90650;-72
2021/12/31 04:29:20;;;;;;;64.93;49.90;;;18.20;74.00;;;;;;5010265;27;95677;-72
2021/12/31 04:31:46;;;;;;;65.20;50.05;;;18.20;74.10;;;;;;5010941;27;90935;-72
2021/12/31 04:34:11;;;;;;;63.88;49.38;;;18.10;73.70;;;;;;5010654;27;90283;-72
2021/12/31 04:36:37;;;;;;;64.38;50.45;;;18.20;73.90;;;;;;5009115;27;91714;-72
2021/12/31 04:39:03;;;;;;;63.83;49.95;;;18.10;74.00;;;;;;5009263;27;89755;-72
2021/12/31 04:41:28;;;;;;;65.32;49.75;;;18.10;74.00;;;;;;5010427;27;90131;-72
2021/12/31 04:43:54;;;;;;;63.45;49.88;;;18.10;73.80;;;;;;5004778;27;90682;-72
2021/12/31 04:46:20;;;;;;;65.25;49.67;;;18.10;74.00;;;;;;4994387;27;92041;-72
2021/12/31 04:48:45;;;;;;;64.68;49.88;;;18.10;74.00;;;;;;5007380;27;94210;-72
2021/12/31 04:51:11;;;;;;;63.28;49.22;;;18.10;74.10;;;;;;5014867;27;90008;-72
2021/12/31 04:53:36;;;;;;;64.85;49.83;;;18.10;74.00;;;;;;5023235;27;91280;-72
2021/12/31 04:56:03;;;;;;;63.83;49.47;;;18.10;73.90;;;;;;5013276;27;90290;-73
2021/12/31 04:58:28;;;;;;;64.15;49.45;;;18.10;73.80;;;;;;5017768;27;89996;-72
2021/12/31 05:00:54;;;;;;;63.03;49.97;;;18.10;74.00;;;;;;5009011;27;88819;-72
2021/12/31 05:03:20;;;;;;;63.65;49.42;;;18.10;74.00;;;;;;5013098;27;90292;-72
2021/12/31 05:05:46;;;;;;;64.60;50.08;;;18.10;73.70;;;;;;5011437;27;90165;-72
2021/12/31 05:08:12;;;;;;;63.53;49.40;;;18.10;73.70;;;;;;5009259;27;90450;-72
2021/12/31 05:10:38;;;;;;;64.93;50.38;;;18.00;73.90;;;;;;5017410;27;92384;-73
2021/12/31 05:13:05;;;;;;;64.05;49.47;;;18.00;73.80;;;;;;5012133;27;95931;-72
2021/12/31 05:15:35;;;;;;;65.68;49.70;;;18.00;73.90;;;;;;5010121;27;91050;-72
2021/12/31 05:18:01;;;;;;;64.43;49.72;;;18.00;74.00;;;;;;5007251;27;90505;-72
2021/12/31 05:20:27;;;;;;;63.13;49.58;;;18.00;74.00;;;;;;5012072;27;90201;-72
2021/12/31 05:22:53;;;;;;;64.05;49.33;;;18.00;73.70;;;;;;5020762;27;89949;-72
2021/12/31 05:25:19;;;;;;;63.35;49.47;;;18.00;73.90;;;;;;5010421;27;92679;-72
2021/12/31 05:27:45;;;;;;;62.97;49.33;;;18.00;74.30;;;;;;5013840;27;89499;-72
2021/12/31 05:30:11;;;;;;;63.45;49.30;;;18.00;73.80;;;;;;5011196;27;90456;-72
2021/12/31 05:32:37;;;;;;;64.50;49.35;;;18.00;73.90;;;;;;5016174;27;91524;-72
2021/12/31 05:35:03;;;;;;;64.18;49.67;;;18.00;73.90;;;;;;5008524;27;90770;-72
2021/12/31 05:37:29;;;;;;;63.72;49.70;;;18.00;73.90;;;;;;5012604;27;90073;-72
2021/12/31 05:39:54;;;;;;;63.90;49.70;;;18.00;73.80;;;;;;5016437;27;91464;-72
2021/12/31 05:42:20;;;;;;;63.47;49.45;;;18.00;73.90;;;;;;5018536;27;90913;-72
2021/12/31 05:44:48;;;;;;;63.20;49.30;;;18.00;73.70;;;;;;4985684;27;91947;-72
2021/12/31 05:47:14;;;;;;;64.25;49.55;;;18.00;73.70;;;;;;5009410;27;89950;-72
2021/12/31 05:49:39;;;;;;;64.18;49.45;;;18.00;73.70;;;;;;5018750;27;88902;-72
2021/12/31 05:52:05;;;;;;;64.38;49.30;;;18.00;73.70;;;;;;5005584;27;90950;-72
2021/12/31 05:54:31;;;;;;;64.30;49.17;;;18.00;73.80;;;;;;5014247;27;91139;-73
2021/12/31 05:56:57;;;;;;;63.20;49.45;;;18.00;73.90;;;;;;5017503;27;91173;-72
2021/12/31 05:59:22;;;;;;;63.88;49.22;;;18.10;74.00;;;;;;5005338;27;90376;-72
2021/12/31 06:01:48;;;;;;;63.42;49.45;;;18.20;73.80;;;;;;5008127;27;93233;-72
2021/12/31 06:04:14;;;;;;;63.83;49.47;;;18.20;73.70;;;;;;5012904;27;90353;-72
2021/12/31 06:06:40;;;;;;;63.90;49.53;;;18.30;73.30;;;;;;5010482;27;91819;-72
2021/12/31 06:09:07;;;;;;;64.63;49.58;;;18.40;73.10;;;;;;5010088;27;90790;-72
2021/12/31 06:11:32;;;;;;;62.75;49.22;;;18.50;72.90;;;;;;4981420;27;91481;-73
2021/12/31 06:14:03;;;;;;;63.58;49.47;;;18.60;72.70;;;;;;5010670;27;91098;-71
2021/12/31 06:16:33;;;;;;;65.25;49.67;;;18.60;72.60;;;;;;5000950;27;89912;-72
2021/12/31 06:19:03;;;;;;;62.45;49.28;;;18.70;72.30;;;;;;5010990;27;90616;-72
2021/12/31 06:21:28;;;;;;;63.33;48.97;;;18.70;71.90;;;;;;5018927;27;91040;-74
2021/12/31 06:23:54;;;;;;;63.55;49.35;;;18.80;72.00;;;;;;5012382;27;90773;-73
2021/12/31 06:26:19;;;;;;;63.30;49.25;;;18.80;71.60;;;;;;5011845;27;91390;-72
2021/12/31 06:28:45;;;;;;;62.03;49.17;;;18.80;71.60;;;;;;5023203;27;89648;-72
2021/12/31 06:31:11;;;;;;;63.92;49.33;;;18.80;71.30;;;;;;5014498;27;92335;-72
2021/12/31 06:33:36;;;;;;;62.72;49.25;;;18.80;71.40;;;;;;5012520;27;91284;-72
2021/12/31 06:36:02;;;;;;;63.97;49.08;;;18.90;71.30;;;;;;5015442;27;92666;-73
2021/12/31 06:38:27;;;;;;;62.28;49.15;;;18.90;71.10;;;;;;4995886;27;89203;-73
2021/12/31 06:40:53;;;;;;;63.03;49.22;;;18.90;71.80;;;;;;5004526;27;90401;-72
2021/12/31 06:43:19;;;;;;;63.42;49.35;;;18.90;70.90;;;;;;5011999;27;93537;-72
2021/12/31 06:45:44;;;;;;;62.70;49.45;;;18.90;70.60;;;;;;5008545;27;91493;-72
2021/12/31 06:48:10;;;;;;;62.28;49.08;;;18.90;70.70;;;;;;5008617;27;91818;-72
2021/12/31 06:50:35;;;;;;;62.78;49.35;;;18.90;70.60;;;;;;5021017;27;89782;-72
2021/12/31 06:53:02;;;;;;;62.70;49.15;;;18.90;70.60;;;;;;5015741;27;90204;-72
2021/12/31 06:55:29;;;;;;;63.35;49.15;;;18.90;70.50;;;;;;5008105;27;90571;-72
2021/12/31 06:57:55;;;;;;;62.42;49.05;;;18.90;70.40;;;;;;4983637;27;92292;-72
2021/12/31 07:00:20;;;;;;;62.38;49.25;;;18.90;70.50;;;;;;5007554;27;94577;-72
2021/12/31 07:02:46;;;;;;;62.10;49.08;;;18.90;70.30;;;;;;5013211;27;90529;-72
2021/12/31 07:05:11;;;;;;;63.22;48.88;;;18.90;70.40;;;;;;5008635;27;92152;-72
2021/12/31 07:07:37;;;;;;;62.65;49.03;;;18.90;70.40;;;;;;5008821;27;90612;-72
2021/12/31 07:10:05;;;;;;;62.28;48.90;;;18.90;70.40;;;;;;5008330;27;91312;-72
2021/12/31 07:12:31;;;;;;;62.25;48.95;;;18.90;70.40;;;;;;4993263;27;93180;-72
2021/12/31 07:14:56;;;;;;;62.47;49.00;;;18.90;71.10;;;;;;5016043;27;90032;-72
2021/12/31 07:17:22;;;;;;;61.28;48.80;;;18.90;70.30;;;;;;5011617;27;90033;-72
2021/12/31 07:19:47;;;;;;;62.38;49.08;;;18.90;70.20;;;;;;5005400;27;89922;-72
2021/12/31 07:22:13;;;;;;;62.67;49.35;;;18.80;69.90;;;;;;5001840;27;91446;-73
2021/12/31 07:24:39;;;;;;;61.75;48.88;;;18.80;70.00;;;;;;5011817;27;90444;-72
2021/12/31 07:27:04;;;;;;;62.13;49.25;;;18.80;70.10;;;;;;5012193;27;90135;-72
2021/12/31 07:29:30;;;;;;;62.05;48.95;;;18.80;70.20;;;;;;5017484;27;90402;-72
2021/12/31 07:31:55;;;;;;;62.58;49.05;;;18.80;70.30;;;;;;5010700;27;89806;-72
2021/12/31 07:34:21;;;;;;;63.60;49.35;;;18.80;70.30;;;;;;4989779;27;91999;-72
2021/12/31 07:36:47;;;;;;;63.03;48.92;;;18.80;70.40;;;;;;4973957;27;90600;-72
2021/12/31 07:39:13;;;;;;;62.50;49.13;;;18.70;70.20;;;;;;4981469;27;90711;-72
2021/12/31 07:41:40;;;;;;;61.97;48.78;;;18.70;70.30;;;;;;4988520;27;91017;-72
2021/12/31 07:44:06;;;;;;;62.22;49.17;;;18.70;70.20;;;;;;4991159;27;90132;-72
2021/12/31 07:46:32;;;;;;;61.58;48.83;;;18.70;70.30;;;;;;4984811;27;90844;-72
2021/12/31 07:48:58;;;;;;;62.22;49.03;;;18.70;70.20;;;;;;4995853;27;90730;-72
2021/12/31 07:51:24;;;;;;;62.85;49.17;;;18.70;70.20;;;;;;5007622;27;90412;-72
2021/12/31 07:53:49;;;;;;;62.65;49.33;;;18.70;70.20;;;;;;5008759;27;91003;-72
2021/12/31 07:56:18;;;;;;;62.42;48.97;;;18.70;70.30;;;;;;5005309;27;90285;-72
2021/12/31 07:58:45;;;;;;;63.05;49.28;;;18.60;70.20;;;;;;5005324;27;92446;-72
2021/12/31 08:01:11;;;;;;;62.40;49.15;;;18.70;70.10;;;;;;5009791;27;90005;-73
2021/12/31 08:03:37;;;;;;;61.80;48.85;;;18.60;70.10;;;;;;5010486;27;91009;-72
2021/12/31 08:06:02;;;;;;;62.33;48.88;;;18.60;70.10;;;;;;4987495;27;90823;-72
2021/12/31 08:08:28;;;;;;;62.20;49.13;;;18.60;70.10;;;;;;5009875;27;92816;-72
2021/12/31 08:10:54;;;;;;;63.08;49.05;;;18.60;70.20;;;;;;5010062;27;90332;-73
2021/12/31 08:13:19;;;;;;;62.28;49.30;;;18.60;70.30;;;;;;5009627;27;90044;-72
2021/12/31 08:15:45;;;;;;;61.83;49.15;;;18.60;70.20;;;;;;5010372;27;91576;-72
2021/12/31 08:18:11;;;;;;;61.97;48.95;;;18.60;70.10;;;;;;5009131;27;92870;-72
2021/12/31 08:20:37;;;;;;;62.08;48.67;;;18.50;70.10;;;;;;5003189;27;91250;-72
2021/12/31 08:23:10;;;;;;;61.88;49.15;;;18.60;70.00;;;;;;5008651;27;91356;-72
2021/12/31 08:25:37;;;;;;;62.08;48.90;;;18.50;69.90;;;;;;5011660;27;91035;-72
2021/12/31 08:28:03;;;;;;;61.78;48.65;;;18.50;70.00;;;;;;5009096;27;95732;-72
2021/12/31 08:30:29;;;;;;;61.03;48.75;;;18.50;69.90;;;;;;5015061;27;90361;-72
2021/12/31 08:32:54;;;;;;;61.40;48.60;;;18.50;70.00;;;;;;5012517;27;90169;-72
2021/12/31 08:35:20;;;;;;;62.03;49.03;;;18.50;69.90;;;;;;5015277;27;89869;-72
2021/12/31 08:37:46;;;;;;;61.53;48.95;;;18.50;70.00;;;;;;5014482;27;90895;-72
2021/12/31 08:40:13;;;;;;;61.85;49.05;;;18.50;69.90;;;;;;5013330;27;89871;-72
2021/12/31 08:42:42;;;;;;;61.80;49.08;;;18.50;69.80;;;;;;5001752;27;92484;-72
2021/12/31 08:45:08;;;;;;;62.28;49.20;;;18.50;69.70;;;;;;5012683;27;89967;-72
2021/12/31 08:47:34;;;;;;;62.08;49.08;;;18.50;69.70;;;;;;5015863;27;90835;-72
2021/12/31 08:50:03;;;;;;;62.08;48.92;;;18.40;69.70;;;;;;5010849;27;92251;-72
2021/12/31 08:52:29;;;;;;;63.05;49.25;;;18.50;69.90;;;;;;5004161;27;90777;-72
2021/12/31 08:54:55;;;;;;;64.32;49.10;;;18.40;69.70;;;;;;5006512;27;91137;-72
2021/12/31 08:57:20;;;;;;;61.88;49.15;;;18.40;69.70;;;;;;5013000;27;92882;-72
2021/12/31 08:59:46;;;;;;;62.70;49.25;;;18.40;69.80;;;;;;5010669;27;90871;-72
2021/12/31 09:02:13;;;;;;;62.17;49.15;;;18.40;69.70;;;;;;5007232;27;98368;-73
2021/12/31 09:04:39;;;;;;;61.22;48.70;;;18.40;69.70;;;;;;4994785;27;90726;-72
2021/12/31 09:07:04;;;;;;;61.80;48.85;;;18.40;69.80;;;;;;5010287;27;98946;-72
2021/12/31 09:09:30;;;;;;;62.55;49.20;;;18.40;69.80;;;;;;5007470;27;90051;-72
2021/12/31 09:11:56;;;;;;;62.53;48.95;;;18.30;69.70;;;;;;5011653;27;95251;-71
2021/12/31 09:14:22;;;;;;;61.65;48.90;;;18.40;69.70;;;;;;5009839;27;90497;-73
2021/12/31 09:16:48;;;;;;;61.90;49.10;;;18.40;69.70;;;;;;5014315;27;91359;-72
2021/12/31 09:19:14;;;;;;;65.03;49.20;;;18.40;69.70;;;;;;5016010;27;90634;-72
2021/12/31 09:21:40;;;;;;;62.45;49.25;;;18.40;69.60;;;;;;4986723;27;90582;-72
2021/12/31 09:24:07;;;;;;;62.47;49.15;;;18.40;69.60;;;;;;5003366;27;90745;-72
2021/12/31 09:26:33;;;;;;;62.47;49.40;;;18.30;69.40;;;;;;4984158;27;90993;-71
2021/12/31 09:28:58;;;;;;;62.83;49.00;;;18.40;69.60;;;;;;4968535;28;90043;-71
2021/12/31 09:31:24;;;;;;;62.53;49.05;;;18.40;69.60;;;;;;4985085;28;91039;-72
2021/12/31 09:33:50;;;;;;;62.13;49.25;;;18.40;69.60;;;;;;4992469;28;90316;-72
2021/12/31 09:36:16;;;;;;;62.00;48.95;;;18.40;69.50;;;;;;4980771;28;91617;-70
2021/12/31 09:38:42;;;;;;;62.33;49.25;;;18.40;69.50;;;;;;4980248;28;92550;-71
2021/12/31 09:41:08;;;;;;;65.38;49.10;;;18.50;69.60;;;;;;4980740;28;89674;-71
2021/12/31 09:43:34;;;;;;;62.30;48.72;;;18.50;69.60;;;;;;4984384;28;89752;-71
2021/12/31 09:45:59;;;;;;;64.30;49.10;;;18.50;69.70;;;;;;4989813;28;91096;-68
2021/12/31 09:48:25;;;;;;;63.28;48.92;;;18.50;69.90;;;;;;4989934;28;90984;-71
2021/12/31 09:50:56;;;;;;;62.10;49.05;;;18.50;69.90;;;;;;4976142;28;90701;-71
2021/12/31 09:53:24;;;;;;;63.88;49.20;;;18.60;69.80;;;;;;4987693;28;89771;-72
2021/12/31 09:55:53;;;;;;;62.95;49.00;;;18.70;69.70;;;;;;4985215;28;90480;-71
2021/12/31 09:58:22;;;;;;;62.78;49.35;;;18.80;69.40;;;;;;4991200;28;91047;-72
2021/12/31 10:00:49;;;;;;;63.95;49.03;;;18.90;69.30;;;;;;4988353;28;91651;-72
2021/12/31 10:03:15;;;;;;;62.95;49.42;;;19.00;68.90;;;;;;4982733;28;90180;-72
2021/12/31 10:05:49;;;;;;;64.00;49.17;;;19.10;68.70;;;;;;4972833;28;93650;-70
2021/12/31 10:08:29;;;;;;;62.95;49.25;;;19.20;68.30;;;;;;4981611;28;91014;-73
2021/12/31 10:11:02;;;;;;;63.95;49.55;;;19.30;68.10;;;;;;4981109;28;90194;-73
2021/12/31 10:13:28;;;;;;;64.10;49.40;;;19.40;67.60;;;;;;4979723;28;94171;-73
2021/12/31 10:15:55;;;;;;;64.10;49.38;;;19.40;67.40;;;;;;4982883;28;90759;-73
2021/12/31 10:18:32;;;;;;;62.88;49.10;;;19.50;67.00;;;;;;4995343;28;89721;-72
2021/12/31 10:20:58;;;;;;;63.17;49.55;;;19.60;67.30;;;;;;4971075;28;89895;-73
2021/12/31 10:23:24;;;;;;;63.58;49.53;;;19.60;66.80;;;;;;4984618;28;91795;-73
2021/12/31 10:25:50;;;;;;;63.63;49.45;;;19.70;66.70;;;;;;4964448;28;95583;-72
2021/12/31 10:28:17;;;;;;;65.53;49.65;;;19.70;66.40;;;;;;4995014;27;91140;-73
2021/12/31 10:30:43;;;;;;;66.00;49.65;;;19.70;66.20;;;;;;5012455;27;95866;-73
2021/12/31 10:33:10;;;;;;;64.53;49.70;;;19.80;66.00;;;;;;5014135;27;90924;-74
2021/12/31 10:35:44;;;;;;;64.70;49.67;;;19.90;65.80;;;;;;5015569;27;90960;-73
2021/12/31 10:38:12;;;;;;;65.30;49.85;;;19.90;65.40;;;;;;5005884;27;90755;-75
2021/12/31 10:40:47;;;;;;;65.45;49.80;;;20.00;65.40;;;;;;4991260;27;89509;-74
2021/12/31 10:43:21;;;;;;;64.43;50.08;;;20.00;65.30;;;;;;5015807;27;88747;-73
2021/12/31 10:46:16;;;;;;;66.05;49.75;;;20.00;65.10;;;;;;5003951;27;90856;-74
2021/12/31 10:48:47;;;;;;;65.15;49.72;;;20.00;65.00;;;;;;5000954;27;93214;-73
2021/12/31 10:51:15;;;;;;;64.18;49.75;;;20.10;64.90;;;;;;4982466;27;93615;-73
2021/12/31 10:53:43;;;;;;;66.30;50.17;;;20.10;64.60;;;;;;5012177;27;90398;-74
2021/12/31 10:56:10;;;;;;;65.75;50.15;;;20.10;64.50;;;;;;5012222;27;90432;-73
2021/12/31 10:58:44;;;;;;;65.68;49.90;;;20.10;64.50;;;;;;5006648;27;90338;-74
2021/12/31 11:01:13;;;;;;;65.47;49.75;;;20.10;64.50;;;;;;5013543;27;89933;-74
2021/12/31 11:03:40;;;;;;;65.13;49.95;;;20.10;64.40;;;;;;5012507;27;90793;-73
2021/12/31 11:06:07;;;;;;;64.13;49.85;;;20.10;64.30;;;;;;4994984;27;90829;-73
2021/12/31 11:08:34;;;;;;;64.82;49.92;;;20.10;64.40;;;;;;5011234;27;90975;-73
2021/12/31 11:11:04;;;;;;;66.60;49.63;;;20.10;64.40;;;;;;5003487;27;89963;-73
2021/12/31 11:13:31;;;;;;;64.85;49.90;;;20.10;64.40;;;;;;5007272;27;89642;-73
2021/12/31 11:16:00;;;;;;;65.88;50.03;;;20.10;64.40;;;;;;5004245;27;91850;-72
2021/12/31 11:18:26;;;;;;;66.10;50.15;;;20.10;64.40;;;;;;5010371;27;90774;-73
2021/12/31 11:21:01;;;;;;;65.13;50.17;;;20.10;64.20;;;;;;4998511;27;92916;-71
2021/12/31 11:23:28;;;;;;;66.38;50.08;;;20.10;64.20;;;;;;5012202;27;90109;-71
2021/12/31 11:26:06;;;;;;;66.70;50.42;;;20.10;64.30;;;;;;4988243;27;90723;-71
2021/12/31 11:28:34;;;;;;;65.35;50.25;;;20.10;64.30;;;;;;5019320;27;90423;-72
2021/12/31 11:31:18;;;;;;;69.68;50.65;;;20.00;64.30;;;;;;5013435;27;90273;-70
2021/12/31 11:34:12;;;;;;;65.53;50.03;;;20.00;64.50;;;;;;5019215;27;88740;-72
2021/12/31 11:36:42;;;;;;;64.68;50.05;;;20.00;64.60;;;;;;5009334;27;91017;-72
2021/12/31 11:39:38;;;;;;;72.80;50.15;;;19.90;64.60;;;;;;4990432;27;89943;-73
2021/12/31 11:42:05;;;;;;;67.47;50.35;;;19.90;64.60;;;;;;4997221;27;91633;-71
2021/12/31 11:44:32;;;;;;;67.57;50.40;;;19.90;64.70;;;;;;5012541;27;90035;-72
2021/12/31 11:47:15;;;;;;;65.60;49.97;;;19.90;64.90;;;;;;5012598;27;89940;-74
2021/12/31 11:49:43;;;;;;;66.10;50.63;;;19.90;64.90;;;;;;5011748;27;90021;-69
2021/12/31 11:52:13;;;;;;;66.93;50.60;;;19.80;64.90;;;;;;4995432;27;91394;-65
2021/12/31 11:54:40;;;;;;;67.68;50.55;;;19.90;64.90;;;;;;5013410;27;90060;-70
2021/12/31 11:57:16;;;;;;;68.07;50.63;;;19.80;65.00;;;;;;5012994;27;90772;-69
2021/12/31 11:59:49;;;;;;;66.53;50.88;;;19.80;65.00;;;;;;5006211;27;89398;-71
2021/12/31 12:02:21;;;;;;;68.22;50.45;;;19.80;65.00;;;;;;4995771;27;90715;-70
2021/12/31 12:04:58;;;;;;;68.40;50.88;;;19.80;65.10;;;;;;5013555;27;96473;-71
2021/12/31 12:07:48;;;;;;;69.07;50.70;;;19.80;65.00;;;;;;4994083;27;91262;-70
2021/12/31 12:10:25;;;;;;;65.28;50.50;;;19.80;65.10;;;;;;5015537;27;90869;-69
2021/12/31 12:12:57;;;;;;;69.10;50.60;;;19.80;65.10;;;;;;5009180;27;90325;-70
2021/12/31 12:15:31;;;;;;;68.38;50.78;;;19.80;65.10;;;;;;5010169;27;90866;-70
2021/12/31 12:18:02;;;;;;;68.60;51.03;;;19.80;65.10;;;;;;5004560;27;90457;-71
2021/12/31 12:20:36;;;;;;;69.93;50.67;;;19.80;65.80;;;;;;5009617;27;94425;-70
2021/12/31 12:23:02;;;;;;;69.43;50.83;;;19.80;65.10;;;;;;5008659;27;90549;-68
2021/12/31 12:25:34;;;;;;;69.63;51.08;;;19.80;65.00;;;;;;5011048;27;88981;-70
2021/12/31 12:28:09;;;;;;;67.63;50.72;;;19.80;65.00;;;;;;5007641;27;91208;-69
2021/12/31 12:30:44;;;;;;;66.22;50.80;;;19.80;65.00;;;;;;5016260;27;90041;-70
2021/12/31 12:35:39;;;;;;;69.88;51.05;;;19.80;65.50;;;;;;5015690;27;91007;-71